sensor_id;sensor_type;location;lat;lon;timestamp;noise_LAeq;noise_LA_min;noise_LA_max;noise_LA01;noise_LA95
40465;Laerm;30489;48.982;8.394;2023-01-20T00:01:59;38.90;36.69;40.62;;
40465;Laerm;30489;48.982;8.394;2023-01-20T00:04:10;38.89;36.77;40.98;;
40465;Laerm;30489;48.982;8.394;2023-01-20T00:06:20;38.89;36.91;40.71;;
40465;Laerm;30489;48.982;8.394;2023-01-20T00:08:31;38.93;36.91;40.80;;
40465;Laerm;30489;48.982;8.394;2023-01-20T00:10:41;38.90;36.45;40.53;;
40465;Laerm;30489;48.982;8.394;2023-01-20T00:12:51;38.90;36.20;40.71;;
40465;Laerm;30489;48.982;8.394;2023-01-20T00:15:02;38.93;36.91;45.36;;
40465;Laerm;30489;48.982;8.394;2023-01-20T00:17:12;38.92;36.56;40.71;;
40465;Laerm;30489;48.982;8.394;2023-01-20T00:19:22;38.93;36.45;40.80;;
40465;Laerm;30489;48.982;8.394;2023-01-20T00:21:33;38.91;36.69;40.89;;
40465;Laerm;30489;48.982;8.394;2023-01-20T00:23:44;38.87;36.45;40.98;;
40465;Laerm;30489;48.982;8.394;2023-01-20T00:25:55;38.89;36.91;40.71;;
40465;Laerm;30489;48.982;8.394;2023-01-20T00:28:05;38.86;36.45;40.62;;
40465;Laerm;30489;48.982;8.394;2023-01-20T00:30:15;38.89;36.20;40.71;;
40465;Laerm;30489;48.982;8.394;2023-01-20T00:32:26;38.89;36.91;40.71;;
40465;Laerm;30489;48.982;8.394;2023-01-20T00:34:36;38.90;36.69;40.62;;
40465;Laerm;30489;48.982;8.394;2023-01-20T00:36:46;38.88;36.20;40.98;;
40465;Laerm;30489;48.982;8.394;2023-01-20T00:38:56;38.87;36.69;40.62;;
40465;Laerm;30489;48.982;8.394;2023-01-20T00:41:07;38.85;36.69;43.89;;
40465;Laerm;30489;48.982;8.394;2023-01-20T00:43:18;38.88;36.45;40.62;;
40465;Laerm;30489;48.982;8.394;2023-01-20T00:45:28;38.89;36.69;40.71;;
40465;Laerm;30489;48.982;8.394;2023-01-20T00:47:38;38.92;36.45;40.62;;
40465;Laerm;30489;48.982;8.394;2023-01-20T00:49:48;38.90;36.45;40.71;;
40465;Laerm;30489;48.982;8.394;2023-01-20T00:51:59;38.86;36.45;40.62;;
40465;Laerm;30489;48.982;8.394;2023-01-20T00:54:09;38.87;36.69;40.62;;
40465;Laerm;30489;48.982;8.394;2023-01-20T00:56:19;38.86;36.69;40.63;;
40465;Laerm;30489;48.982;8.394;2023-01-20T00:58:30;38.87;36.45;40.98;;
40465;Laerm;30489;48.982;8.394;2023-01-20T01:00:40;38.84;36.45;40.63;;
40465;Laerm;30489;48.982;8.394;2023-01-20T01:02:50;38.83;36.69;40.53;;
40465;Laerm;30489;48.982;8.394;2023-01-20T01:05:00;38.81;36.45;40.71;;
40465;Laerm;30489;48.982;8.394;2023-01-20T01:07:11;38.82;36.34;40.43;;
40465;Laerm;30489;48.982;8.394;2023-01-20T01:09:21;38.81;36.20;40.71;;
40465;Laerm;30489;48.982;8.394;2023-01-20T01:11:31;38.80;36.20;40.71;;
40465;Laerm;30489;48.982;8.394;2023-01-20T01:13:42;38.83;36.91;40.62;;
40465;Laerm;30489;48.982;8.394;2023-01-20T01:15:52;38.85;36.69;40.71;;
40465;Laerm;30489;48.982;8.394;2023-01-20T01:18:02;38.86;36.69;40.80;;
40465;Laerm;30489;48.982;8.394;2023-01-20T01:20:13;38.83;36.45;40.71;;
40465;Laerm;30489;48.982;8.394;2023-01-20T01:22:23;38.83;36.69;40.89;;
40465;Laerm;30489;48.982;8.394;2023-01-20T01:24:34;38.82;36.45;40.43;;
40465;Laerm;30489;48.982;8.394;2023-01-20T01:26:44;38.84;36.69;40.98;;
40465;Laerm;30489;48.982;8.394;2023-01-20T01:28:54;38.81;36.45;40.71;;
40465;Laerm;30489;48.982;8.394;2023-01-20T01:31:05;38.80;36.45;40.71;;
40465;Laerm;30489;48.982;8.394;2023-01-20T01:33:15;38.83;36.45;40.98;;
40465;Laerm;30489;48.982;8.394;2023-01-20T01:35:26;38.80;36.20;40.62;;
40465;Laerm;30489;48.982;8.394;2023-01-20T01:37:36;38.78;36.45;40.71;;
40465;Laerm;30489;48.982;8.394;2023-01-20T01:39:46;38.79;36.20;40.53;;
40465;Laerm;30489;48.982;8.394;2023-01-20T01:41:56;38.83;36.45;40.71;;
40465;Laerm;30489;48.982;8.394;2023-01-20T01:44:08;38.83;36.77;40.62;;
40465;Laerm;30489;48.982;8.394;2023-01-20T01:46:18;38.81;36.45;40.71;;
40465;Laerm;30489;48.982;8.394;2023-01-20T01:50:41;38.82;36.69;40.89;;
40465;Laerm;30489;48.982;8.394;2023-01-20T01:52:54;38.79;36.20;40.71;;
40465;Laerm;30489;48.982;8.394;2023-01-20T01:55:05;38.79;36.45;40.71;;
40465;Laerm;30489;48.982;8.394;2023-01-20T01:57:16;38.75;36.20;41.06;;
40465;Laerm;30489;48.982;8.394;2023-01-20T01:59:28;38.76;36.45;40.71;;
40465;Laerm;30489;48.982;8.394;2023-01-20T02:01:39;38.74;36.45;40.89;;
40465;Laerm;30489;48.982;8.394;2023-01-20T02:04:11;38.74;35.94;40.62;;
40465;Laerm;30489;48.982;8.394;2023-01-20T02:06:23;38.72;36.20;40.71;;
40465;Laerm;30489;48.982;8.394;2023-01-20T02:08:35;38.70;35.66;40.80;;
40465;Laerm;30489;48.982;8.394;2023-01-20T02:10:45;38.75;36.45;40.53;;
40465;Laerm;30489;48.982;8.394;2023-01-20T02:12:56;38.76;36.69;40.80;;
40465;Laerm;30489;48.982;8.394;2023-01-20T02:15:07;38.76;36.45;40.80;;
40465;Laerm;30489;48.982;8.394;2023-01-20T02:17:34;38.76;36.56;40.89;;
40465;Laerm;30489;48.982;8.394;2023-01-20T02:34:01;38.79;36.20;40.80;;
40465;Laerm;30489;48.982;8.394;2023-01-20T02:38:40;38.76;36.45;40.62;;
40465;Laerm;30489;48.982;8.394;2023-01-20T02:40:54;38.77;36.20;40.71;;
40465;Laerm;30489;48.982;8.394;2023-01-20T02:43:10;38.79;36.45;40.53;;
40465;Laerm;30489;48.982;8.394;2023-01-20T02:46:08;38.80;36.45;40.71;;
40465;Laerm;30489;48.982;8.394;2023-01-20T02:48:17;38.80;36.69;40.80;;
40465;Laerm;30489;48.982;8.394;2023-01-20T02:50:37;38.78;36.45;40.98;;
40465;Laerm;30489;48.982;8.394;2023-01-20T02:52:50;38.79;36.45;40.62;;
40465;Laerm;30489;48.982;8.394;2023-01-20T02:55:06;38.79;36.69;40.80;;
40465;Laerm;30489;48.982;8.394;2023-01-20T02:57:18;38.81;36.69;40.71;;
40465;Laerm;30489;48.982;8.394;2023-01-20T02:59:31;38.81;35.66;40.53;;
40465;Laerm;30489;48.982;8.394;2023-01-20T03:01:49;38.78;36.20;40.43;;
40465;Laerm;30489;48.982;8.394;2023-01-20T03:04:00;38.77;36.20;40.62;;
40465;Laerm;30489;48.982;8.394;2023-01-20T03:06:16;38.78;36.45;40.98;;
40465;Laerm;30489;48.982;8.394;2023-01-20T03:08:28;38.78;36.45;40.80;;
40465;Laerm;30489;48.982;8.394;2023-01-20T03:10:40;38.78;36.45;40.71;;
40465;Laerm;30489;48.982;8.394;2023-01-20T03:12:59;38.77;36.69;40.98;;
40465;Laerm;30489;48.982;8.394;2023-01-20T03:15:15;38.76;36.69;40.43;;
40465;Laerm;30489;48.982;8.394;2023-01-20T03:17:25;38.78;36.20;40.53;;
40465;Laerm;30489;48.982;8.394;2023-01-20T03:19:36;38.76;36.69;40.62;;
40465;Laerm;30489;48.982;8.394;2023-01-20T03:21:46;38.77;36.45;40.71;;
40465;Laerm;30489;48.982;8.394;2023-01-20T03:23:59;38.74;36.69;40.89;;
40465;Laerm;30489;48.982;8.394;2023-01-20T03:26:10;38.75;36.56;40.71;;
40465;Laerm;30489;48.982;8.394;2023-01-20T03:28:21;38.74;36.45;40.80;;
40465;Laerm;30489;48.982;8.394;2023-01-20T03:30:31;38.71;36.45;40.62;;
40465;Laerm;30489;48.982;8.394;2023-01-20T03:32:42;38.70;35.66;40.53;;
40465;Laerm;30489;48.982;8.394;2023-01-20T03:34:56;38.73;35.66;40.62;;
40465;Laerm;30489;48.982;8.394;2023-01-20T03:37:07;38.75;36.45;40.43;;
40465;Laerm;30489;48.982;8.394;2023-01-20T03:39:18;38.72;36.69;40.62;;
40465;Laerm;30489;48.982;8.394;2023-01-20T03:41:39;38.70;36.45;40.62;;
40465;Laerm;30489;48.982;8.394;2023-01-20T03:44:11;38.70;36.20;40.89;;
40465;Laerm;30489;48.982;8.394;2023-01-20T03:46:26;38.67;35.94;40.71;;
40465;Laerm;30489;48.982;8.394;2023-01-20T03:48:44;38.70;36.20;40.53;;
40465;Laerm;30489;48.982;8.394;2023-01-20T03:51:01;38.68;36.20;40.62;;
40465;Laerm;30489;48.982;8.394;2023-01-20T03:57:50;38.69;36.20;40.89;;
40465;Laerm;30489;48.982;8.394;2023-01-20T04:00:03;38.70;36.69;40.89;;
40465;Laerm;30489;48.982;8.394;2023-01-20T04:02:15;38.70;36.20;40.53;;
40465;Laerm;30489;48.982;8.394;2023-01-20T04:04:25;38.70;36.20;40.53;;
40465;Laerm;30489;48.982;8.394;2023-01-20T04:06:35;38.70;36.20;40.62;;
40465;Laerm;30489;48.982;8.394;2023-01-20T04:08:47;38.69;36.45;40.53;;
40465;Laerm;30489;48.982;8.394;2023-01-20T04:11:00;38.72;36.45;40.62;;
40465;Laerm;30489;48.982;8.394;2023-01-20T04:13:13;38.68;36.20;40.53;;
40465;Laerm;30489;48.982;8.394;2023-01-20T04:15:24;38.68;36.20;40.71;;
40465;Laerm;30489;48.982;8.394;2023-01-20T04:17:35;38.68;36.20;41.14;;
40465;Laerm;30489;48.982;8.394;2023-01-20T04:19:45;38.69;36.20;40.53;;
40465;Laerm;30489;48.982;8.394;2023-01-20T04:26:20;38.68;35.94;40.53;;
40465;Laerm;30489;48.982;8.394;2023-01-20T04:28:30;38.66;36.45;40.80;;
40465;Laerm;30489;48.982;8.394;2023-01-20T04:30:41;38.66;36.20;40.43;;
40465;Laerm;30489;48.982;8.394;2023-01-20T04:32:51;38.70;36.20;40.53;;
40465;Laerm;30489;48.982;8.394;2023-01-20T04:35:01;38.69;36.20;40.62;;
40465;Laerm;30489;48.982;8.394;2023-01-20T04:37:12;38.73;36.10;40.43;;
40465;Laerm;30489;48.982;8.394;2023-01-20T04:39:22;38.74;36.20;40.80;;
40465;Laerm;30489;48.982;8.394;2023-01-20T04:41:32;38.74;36.45;40.80;;
40465;Laerm;30489;48.982;8.394;2023-01-20T04:43:43;38.73;36.45;40.62;;
40465;Laerm;30489;48.982;8.394;2023-01-20T04:45:54;38.74;35.36;40.80;;
40465;Laerm;30489;48.982;8.394;2023-01-20T04:48:04;38.74;35.94;40.45;;
40465;Laerm;30489;48.982;8.394;2023-01-20T04:50:15;38.73;36.45;40.71;;
40465;Laerm;30489;48.982;8.394;2023-01-20T04:52:25;38.74;36.20;40.53;;
40465;Laerm;30489;48.982;8.394;2023-01-20T04:54:35;38.75;36.20;40.43;;
40465;Laerm;30489;48.982;8.394;2023-01-20T04:56:49;38.74;36.20;40.80;;
40465;Laerm;30489;48.982;8.394;2023-01-20T04:58:59;38.76;36.45;40.53;;
40465;Laerm;30489;48.982;8.394;2023-01-20T05:01:09;38.75;36.20;40.53;;
40465;Laerm;30489;48.982;8.394;2023-01-20T05:03:20;38.73;36.45;40.43;;
40465;Laerm;30489;48.982;8.394;2023-01-20T05:05:30;38.73;36.45;40.62;;
40465;Laerm;30489;48.982;8.394;2023-01-20T05:07:40;38.75;36.45;40.71;;
40465;Laerm;30489;48.982;8.394;2023-01-20T05:09:50;38.73;36.69;40.62;;
40465;Laerm;30489;48.982;8.394;2023-01-20T05:12:01;38.73;36.45;40.71;;
40465;Laerm;30489;48.982;8.394;2023-01-20T05:14:11;38.73;36.20;40.53;;
40465;Laerm;30489;48.982;8.394;2023-01-20T05:16:21;38.75;36.69;40.80;;
40465;Laerm;30489;48.982;8.394;2023-01-20T05:18:35;38.76;36.45;40.53;;
40465;Laerm;30489;48.982;8.394;2023-01-20T05:20:45;38.76;36.20;40.62;;
40465;Laerm;30489;48.982;8.394;2023-01-20T05:22:56;38.76;36.56;40.62;;
40465;Laerm;30489;48.982;8.394;2023-01-20T05:25:07;38.75;36.10;40.62;;
40465;Laerm;30489;48.982;8.394;2023-01-20T05:27:17;38.75;35.94;40.33;;
40465;Laerm;30489;48.982;8.394;2023-01-20T05:29:28;38.81;36.45;40.71;;
40465;Laerm;30489;48.982;8.394;2023-01-20T05:31:38;38.78;36.77;40.62;;
40465;Laerm;30489;48.982;8.394;2023-01-20T05:33:52;38.79;35.66;40.89;;
40465;Laerm;30489;48.982;8.394;2023-01-20T05:36:05;38.76;36.20;40.62;;
40465;Laerm;30489;48.982;8.394;2023-01-20T05:38:16;38.80;36.69;40.62;;
40465;Laerm;30489;48.982;8.394;2023-01-20T05:40:26;38.74;36.45;40.53;;
40465;Laerm;30489;48.982;8.394;2023-01-20T05:42:36;38.73;36.45;40.53;;
40465;Laerm;30489;48.982;8.394;2023-01-20T05:44:47;38.74;36.69;40.62;;
40465;Laerm;30489;48.982;8.394;2023-01-20T05:46:57;38.72;35.94;40.98;;
40465;Laerm;30489;48.982;8.394;2023-01-20T05:49:09;38.72;36.20;40.43;;
40465;Laerm;30489;48.982;8.394;2023-01-20T05:51:19;38.71;36.20;40.53;;
40465;Laerm;30489;48.982;8.394;2023-01-20T05:53:29;38.73;36.20;40.53;;
40465;Laerm;30489;48.982;8.394;2023-01-20T05:55:40;38.74;36.20;40.62;;
40465;Laerm;30489;48.982;8.394;2023-01-20T05:57:50;38.75;36.56;40.53;;
40465;Laerm;30489;48.982;8.394;2023-01-20T06:00:00;38.74;35.94;40.62;;
40465;Laerm;30489;48.982;8.394;2023-01-20T06:02:10;38.74;36.69;40.53;;
40465;Laerm;30489;48.982;8.394;2023-01-20T06:04:22;38.73;35.94;40.71;;
40465;Laerm;30489;48.982;8.394;2023-01-20T06:06:32;38.75;36.45;40.43;;
40465;Laerm;30489;48.982;8.394;2023-01-20T06:08:43;38.75;36.69;40.53;;
40465;Laerm;30489;48.982;8.394;2023-01-20T06:10:53;38.76;36.69;40.62;;
40465;Laerm;30489;48.982;8.394;2023-01-20T06:13:04;38.74;36.45;40.80;;
40465;Laerm;30489;48.982;8.394;2023-01-20T06:15:15;38.74;36.69;40.71;;
40465;Laerm;30489;48.982;8.394;2023-01-20T06:17:25;38.75;36.45;40.62;;
40465;Laerm;30489;48.982;8.394;2023-01-20T06:19:35;38.79;36.56;40.80;;
40465;Laerm;30489;48.982;8.394;2023-01-20T06:21:46;38.78;36.45;42.35;;
40465;Laerm;30489;48.982;8.394;2023-01-20T06:23:56;38.74;36.20;40.71;;
40465;Laerm;30489;48.982;8.394;2023-01-20T06:26:07;38.74;36.45;40.54;;
40465;Laerm;30489;48.982;8.394;2023-01-20T06:28:18;38.72;36.20;40.54;;
40465;Laerm;30489;48.982;8.394;2023-01-20T06:30:28;38.71;35.94;40.62;;
40465;Laerm;30489;48.982;8.394;2023-01-20T06:32:38;38.73;35.94;40.80;;
40465;Laerm;30489;48.982;8.394;2023-01-20T06:34:48;38.73;36.20;40.62;;
40465;Laerm;30489;48.982;8.394;2023-01-20T06:36:59;38.79;36.45;40.71;;
40465;Laerm;30489;48.982;8.394;2023-01-20T06:39:10;38.83;36.45;40.79;;
40465;Laerm;30489;48.982;8.394;2023-01-20T06:41:21;38.87;36.45;40.80;;
40465;Laerm;30489;48.982;8.394;2023-01-20T06:43:31;38.90;36.69;40.71;;
40465;Laerm;30489;48.982;8.394;2023-01-20T06:45:42;38.83;36.20;41.06;;
40465;Laerm;30489;48.982;8.394;2023-01-20T06:47:53;38.82;36.69;40.71;;
40465;Laerm;30489;48.982;8.394;2023-01-20T06:50:03;38.80;36.69;40.62;;
40465;Laerm;30489;48.982;8.394;2023-01-20T06:52:13;38.81;36.45;40.89;;
40465;Laerm;30489;48.982;8.394;2023-01-20T06:54:24;38.80;35.66;40.89;;
40465;Laerm;30489;48.982;8.394;2023-01-20T06:56:34;38.82;36.20;40.71;;
40465;Laerm;30489;48.982;8.394;2023-01-20T06:58:44;38.84;36.91;49.39;;
40465;Laerm;30489;48.982;8.394;2023-01-20T07:00:55;38.83;36.45;45.89;;
40465;Laerm;30489;48.982;8.394;2023-01-20T07:03:06;38.81;36.69;40.80;;
40465;Laerm;30489;48.982;8.394;2023-01-20T07:05:18;38.80;36.45;40.98;;
40465;Laerm;30489;48.982;8.394;2023-01-20T07:07:28;38.78;36.45;40.62;;
40465;Laerm;30489;48.982;8.394;2023-01-20T07:09:38;38.80;36.69;40.53;;
40465;Laerm;30489;48.982;8.394;2023-01-20T07:11:49;38.80;36.20;40.71;;
40465;Laerm;30489;48.982;8.394;2023-01-20T07:13:59;38.82;36.45;40.80;;
40465;Laerm;30489;48.982;8.394;2023-01-20T07:16:10;38.78;36.20;40.62;;
40465;Laerm;30489;48.982;8.394;2023-01-20T07:18:20;38.76;36.20;40.80;;
40465;Laerm;30489;48.982;8.394;2023-01-20T07:20:33;38.77;36.69;40.53;;
40465;Laerm;30489;48.982;8.394;2023-01-20T07:22:44;38.80;36.45;40.62;;
40465;Laerm;30489;48.982;8.394;2023-01-20T07:24:54;38.81;36.45;40.43;;
40465;Laerm;30489;48.982;8.394;2023-01-20T07:27:04;38.84;36.45;40.62;;
40465;Laerm;30489;48.982;8.394;2023-01-20T07:29:14;38.86;36.91;41.30;;
40465;Laerm;30489;48.982;8.394;2023-01-20T07:31:25;38.87;36.69;43.14;;
40465;Laerm;30489;48.982;8.394;2023-01-20T07:33:36;38.94;36.69;42.82;;
40465;Laerm;30489;48.982;8.394;2023-01-20T07:35:50;38.90;36.69;40.71;;
40465;Laerm;30489;48.982;8.394;2023-01-20T07:38:02;38.96;36.69;40.71;;
40465;Laerm;30489;48.982;8.394;2023-01-20T07:40:13;38.88;36.69;41.06;;
40465;Laerm;30489;48.982;8.394;2023-01-20T07:42:23;38.86;36.69;42.41;;
40465;Laerm;30489;48.982;8.394;2023-01-20T07:44:34;38.87;36.45;47.12;;
40465;Laerm;30489;48.982;8.394;2023-01-20T07:46:44;38.96;35.94;40.80;;
40465;Laerm;30489;48.982;8.394;2023-01-20T07:48:54;38.90;36.69;40.71;;
40465;Laerm;30489;48.982;8.394;2023-01-20T07:51:05;38.77;36.45;40.80;;
40465;Laerm;30489;48.982;8.394;2023-01-20T07:53:16;38.78;36.20;40.53;;
40465;Laerm;30489;48.982;8.394;2023-01-20T07:55:26;39.25;36.91;42.47;;
40465;Laerm;30489;48.982;8.394;2023-01-20T07:57:37;39.30;36.69;41.82;;
40465;Laerm;30489;48.982;8.394;2023-01-20T07:59:47;39.23;36.69;41.38;;
40465;Laerm;30489;48.982;8.394;2023-01-20T08:01:57;38.79;36.91;40.71;;
40465;Laerm;30489;48.982;8.394;2023-01-20T08:04:08;38.83;36.45;42.93;;
40465;Laerm;30489;48.982;8.394;2023-01-20T08:06:19;38.91;36.69;42.09;;
40465;Laerm;30489;48.982;8.394;2023-01-20T08:08:33;38.82;36.69;40.53;;
40465;Laerm;30489;48.982;8.394;2023-01-20T08:10:44;38.77;36.69;42.22;;
40465;Laerm;30489;48.982;8.394;2023-01-20T08:12:56;38.77;36.20;41.82;;
40465;Laerm;30489;48.982;8.394;2023-01-20T08:15:07;38.77;36.45;40.62;;
40465;Laerm;30489;48.982;8.394;2023-01-20T08:17:18;38.80;36.45;40.62;;
40465;Laerm;30489;48.982;8.394;2023-01-20T08:19:28;38.78;36.20;40.43;;
40465;Laerm;30489;48.982;8.394;2023-01-20T08:21:38;38.81;36.45;42.71;;
40465;Laerm;30489;48.982;8.394;2023-01-20T08:23:49;38.78;36.45;40.62;;
40465;Laerm;30489;48.982;8.394;2023-01-20T08:26:00;38.77;36.20;40.54;;
40465;Laerm;30489;48.982;8.394;2023-01-20T08:28:11;38.75;36.45;40.80;;
40465;Laerm;30489;48.982;8.394;2023-01-20T08:30:21;38.75;36.69;40.71;;
40465;Laerm;30489;48.982;8.394;2023-01-20T08:32:31;38.74;36.45;40.53;;
40465;Laerm;30489;48.982;8.394;2023-01-20T08:34:41;38.74;36.45;40.53;;
40465;Laerm;30489;48.982;8.394;2023-01-20T08:36:52;38.76;36.20;40.33;;
40465;Laerm;30489;48.982;8.394;2023-01-20T08:39:03;38.75;36.20;40.80;;
40465;Laerm;30489;48.982;8.394;2023-01-20T08:41:15;38.75;35.66;40.62;;
40465;Laerm;30489;48.982;8.394;2023-01-20T08:43:26;38.77;36.69;40.80;;
40465;Laerm;30489;48.982;8.394;2023-01-20T08:45:36;38.76;36.45;40.98;;
40465;Laerm;30489;48.982;8.394;2023-01-20T08:47:46;38.77;36.69;41.06;;
40465;Laerm;30489;48.982;8.394;2023-01-20T08:49:57;38.75;36.45;40.53;;
40465;Laerm;30489;48.982;8.394;2023-01-20T08:52:07;38.77;36.69;40.89;;
40465;Laerm;30489;48.982;8.394;2023-01-20T08:54:17;38.76;35.94;40.71;;
40465;Laerm;30489;48.982;8.394;2023-01-20T08:56:28;38.76;36.45;40.63;;
40465;Laerm;30489;48.982;8.394;2023-01-20T08:58:39;38.81;36.45;40.80;;
40465;Laerm;30489;48.982;8.394;2023-01-20T09:00:49;38.81;35.94;40.80;;
40465;Laerm;30489;48.982;8.394;2023-01-20T09:02:59;38.82;36.45;40.63;;
40465;Laerm;30489;48.982;8.394;2023-01-20T09:05:10;38.84;36.69;43.04;;
40465;Laerm;30489;48.982;8.394;2023-01-20T09:07:20;38.80;36.20;41.61;;
40465;Laerm;30489;48.982;8.394;2023-01-20T09:09:30;38.79;35.94;40.43;;
40465;Laerm;30489;48.982;8.394;2023-01-20T09:11:41;38.80;36.45;40.71;;
40465;Laerm;30489;48.982;8.394;2023-01-20T09:13:53;38.82;35.94;40.53;;
40465;Laerm;30489;48.982;8.394;2023-01-20T09:16:04;38.82;36.45;40.62;;
40465;Laerm;30489;48.982;8.394;2023-01-20T09:18:14;38.86;36.20;40.71;;
40465;Laerm;30489;48.982;8.394;2023-01-20T09:20:24;38.87;36.45;42.82;;
40465;Laerm;30489;48.982;8.394;2023-01-20T09:22:36;38.89;36.91;40.71;;
40465;Laerm;30489;48.982;8.394;2023-01-20T09:24:46;38.88;36.69;40.63;;
40465;Laerm;30489;48.982;8.394;2023-01-20T09:26:56;38.89;36.69;40.89;;
40465;Laerm;30489;48.982;8.394;2023-01-20T09:29:11;38.87;36.69;40.80;;
40465;Laerm;30489;48.982;8.394;2023-01-20T09:31:22;38.87;36.69;40.89;;
40465;Laerm;30489;48.982;8.394;2023-01-20T09:33:33;38.91;36.69;40.62;;
40465;Laerm;30489;48.982;8.394;2023-01-20T09:35:45;38.93;36.69;40.71;;
40465;Laerm;30489;48.982;8.394;2023-01-20T09:38:02;38.93;36.69;40.80;;
40465;Laerm;30489;48.982;8.394;2023-01-20T09:40:38;38.95;36.45;40.80;;
40465;Laerm;30489;48.982;8.394;2023-01-20T09:45:58;38.97;36.69;40.71;;
40465;Laerm;30489;48.982;8.394;2023-01-20T09:48:25;39.68;36.69;43.58;;
40465;Laerm;30489;48.982;8.394;2023-01-20T09:50:59;41.50;36.69;47.77;;
40465;Laerm;30489;48.982;8.394;2023-01-20T09:53:45;40.47;36.91;45.77;;
40465;Laerm;30489;48.982;8.394;2023-01-20T09:55:58;38.99;36.69;40.71;;
40465;Laerm;30489;48.982;8.394;2023-01-20T10:00:21;39.00;36.91;40.71;;
40465;Laerm;30489;48.982;8.394;2023-01-20T10:02:33;39.02;36.91;40.71;;
40465;Laerm;30489;48.982;8.394;2023-01-20T10:04:45;39.04;36.45;40.62;;
40465;Laerm;30489;48.982;8.394;2023-01-20T10:07:01;39.04;36.91;40.62;;
40465;Laerm;30489;48.982;8.394;2023-01-20T10:11:42;39.05;36.91;40.89;;
40465;Laerm;30489;48.982;8.394;2023-01-20T10:13:55;39.07;36.91;40.98;;
40465;Laerm;30489;48.982;8.394;2023-01-20T10:16:08;39.09;36.45;41.06;;
40465;Laerm;30489;48.982;8.394;2023-01-20T10:18:29;39.10;36.91;40.80;;
40465;Laerm;30489;48.982;8.394;2023-01-20T10:20:55;39.09;37.12;40.80;;
40465;Laerm;30489;48.982;8.394;2023-01-20T10:23:15;39.11;36.91;40.80;;
40465;Laerm;30489;48.982;8.394;2023-01-20T10:27:40;39.11;36.91;40.98;;
40465;Laerm;30489;48.982;8.394;2023-01-20T10:29:53;39.08;36.69;41.30;;
40465;Laerm;30489;48.982;8.394;2023-01-20T10:32:49;39.15;37.12;40.98;;
40465;Laerm;30489;48.982;8.394;2023-01-20T10:34:43;39.16;37.12;40.80;;
40465;Laerm;30489;48.982;8.394;2023-01-20T10:37:00;39.17;37.12;40.89;;
40465;Laerm;30489;48.982;8.394;2023-01-20T10:43:40;39.20;36.91;41.06;;
40465;Laerm;30489;48.982;8.394;2023-01-20T10:55:37;39.26;36.45;41.22;;
40465;Laerm;30489;48.982;8.394;2023-01-20T10:58:34;39.28;36.91;41.26;;
40465;Laerm;30489;48.982;8.394;2023-01-20T11:00:28;41.64;37.12;50.67;;
40465;Laerm;30489;48.982;8.394;2023-01-20T11:02:40;42.00;38.52;49.78;;
40465;Laerm;30489;48.982;8.394;2023-01-20T11:04:57;39.33;37.12;40.80;;
40465;Laerm;30489;48.982;8.394;2023-01-20T11:07:11;40.06;36.91;45.48;;
40465;Laerm;30489;48.982;8.394;2023-01-20T11:09:34;39.70;37.52;41.82;;
40465;Laerm;30489;48.982;8.394;2023-01-20T11:11:47;39.82;37.52;42.16;;
40465;Laerm;30489;48.982;8.394;2023-01-20T11:13:58;40.13;37.88;43.14;;
40465;Laerm;30489;48.982;8.394;2023-01-20T11:16:18;39.79;37.52;41.96;;
40465;Laerm;30489;48.982;8.394;2023-01-20T11:18:29;40.53;37.52;47.61;;
40465;Laerm;30489;48.982;8.394;2023-01-20T11:20:44;39.40;37.52;41.38;;
40465;Laerm;30489;48.982;8.394;2023-01-20T11:22:55;39.39;37.52;41.06;;
40465;Laerm;30489;48.982;8.394;2023-01-20T11:25:10;39.41;37.32;40.98;;
40465;Laerm;30489;48.982;8.394;2023-01-20T11:27:34;39.43;36.91;41.06;;
40465;Laerm;30489;48.982;8.394;2023-01-20T11:29:51;39.47;37.32;41.22;;
40465;Laerm;30489;48.982;8.394;2023-01-20T11:32:07;39.46;37.52;41.06;;
40465;Laerm;30489;48.982;8.394;2023-01-20T11:34:32;39.47;37.52;41.22;;
40465;Laerm;30489;48.982;8.394;2023-01-20T11:36:43;39.45;37.12;40.89;;
40465;Laerm;30489;48.982;8.394;2023-01-20T11:38:54;39.44;37.32;41.14;;
40465;Laerm;30489;48.982;8.394;2023-01-20T11:41:06;39.43;37.52;41.06;;
40465;Laerm;30489;48.982;8.394;2023-01-20T11:43:27;39.44;37.12;41.53;;
40465;Laerm;30489;48.982;8.394;2023-01-20T11:45:37;39.41;37.32;41.06;;
40465;Laerm;30489;48.982;8.394;2023-01-20T11:50:18;39.42;37.52;40.89;;
40465;Laerm;30489;48.982;8.394;2023-01-20T11:52:33;39.46;37.32;41.14;;
40465;Laerm;30489;48.982;8.394;2023-01-20T11:54:43;39.46;37.52;41.38;;
40465;Laerm;30489;48.982;8.394;2023-01-20T11:56:55;39.49;37.52;41.14;;
40465;Laerm;30489;48.982;8.394;2023-01-20T11:59:15;39.50;37.52;41.03;;
40465;Laerm;30489;48.982;8.394;2023-01-20T12:01:27;39.52;37.52;41.22;;
40465;Laerm;30489;48.982;8.394;2023-01-20T12:08:14;39.58;37.70;41.46;;
40465;Laerm;30489;48.982;8.394;2023-01-20T12:10:29;39.56;37.88;41.06;;
40465;Laerm;30489;48.982;8.394;2023-01-20T12:12:46;39.58;37.88;40.89;;
40465;Laerm;30489;48.982;8.394;2023-01-20T12:15:02;39.56;37.70;41.53;;
40465;Laerm;30489;48.982;8.394;2023-01-20T12:17:24;39.57;37.52;41.41;;
40465;Laerm;30489;48.982;8.394;2023-01-20T12:21:59;39.62;37.32;41.14;;
40465;Laerm;30489;48.982;8.394;2023-01-20T12:26:22;39.62;37.88;41.46;;
40465;Laerm;30489;48.982;8.394;2023-01-20T12:28:37;39.62;37.52;41.14;;
40465;Laerm;30489;48.982;8.394;2023-01-20T12:30:57;39.64;37.32;41.30;;
40465;Laerm;30489;48.982;8.394;2023-01-20T12:33:19;39.64;37.88;41.06;;
40465;Laerm;30489;48.982;8.394;2023-01-20T12:35:30;39.64;37.88;41.06;;
40465;Laerm;30489;48.982;8.394;2023-01-20T12:37:48;39.61;37.52;41.30;;
40465;Laerm;30489;48.982;8.394;2023-01-20T12:45:09;39.73;37.88;41.06;;
40465;Laerm;30489;48.982;8.394;2023-01-20T12:47:43;39.82;38.21;41.22;;
40465;Laerm;30489;48.982;8.394;2023-01-20T12:52:36;39.85;38.21;41.53;;
40465;Laerm;30489;48.982;8.394;2023-01-20T12:57:48;39.95;38.21;41.22;;
40465;Laerm;30489;48.982;8.394;2023-01-20T13:04:42;40.02;37.88;41.61;;
40465;Laerm;30489;48.982;8.394;2023-01-20T13:07:02;40.01;38.37;41.68;;
40465;Laerm;30489;48.982;8.394;2023-01-20T13:14:14;40.20;38.67;41.68;;
40465;Laerm;30489;48.982;8.394;2023-01-20T13:18:50;40.18;38.21;41.46;;
40465;Laerm;30489;48.982;8.394;2023-01-20T13:21:06;40.22;38.52;41.53;;
40465;Laerm;30489;48.982;8.394;2023-01-20T13:23:26;40.39;38.95;41.61;;
40465;Laerm;30489;48.982;8.394;2023-01-20T13:25:37;40.50;38.95;42.09;;
40465;Laerm;30489;48.982;8.394;2023-01-20T13:27:49;40.56;38.81;41.89;;
40465;Laerm;30489;48.982;8.394;2023-01-20T13:30:02;40.56;39.08;42.47;;
40465;Laerm;30489;48.982;8.394;2023-01-20T13:32:26;40.64;38.95;41.82;;
40465;Laerm;30489;48.982;8.394;2023-01-20T13:34:38;40.70;39.08;41.96;;
40465;Laerm;30489;48.982;8.394;2023-01-20T13:41:50;40.64;39.08;41.96;;
40465;Laerm;30489;48.982;8.394;2023-01-20T13:44:00;40.65;39.46;42.03;;
40465;Laerm;30489;48.982;8.394;2023-01-20T13:53:38;40.81;39.46;42.09;;
40465;Laerm;30489;48.982;8.394;2023-01-20T13:55:49;40.76;39.21;41.96;;
40465;Laerm;30489;48.982;8.394;2023-01-20T13:58:00;40.75;39.34;41.88;;
40465;Laerm;30489;48.982;8.394;2023-01-20T14:00:11;40.88;39.34;41.96;;
40465;Laerm;30489;48.982;8.394;2023-01-20T14:02:23;40.86;39.46;42.03;;